Time;durP1;ratioP1;P1;durP2;ratioP2;P2;SDS_P1;SDS_P2;PMS_P1;PMS_P2;Temp;Humidity;BMP_temperature;BMP_pressure;BME280_temperature;BME280_humidity;BME280_pressure;Samples;Min_cycle;Max_cycle;Signal;HPM_P1;HPM_P2
2022/06/18 00:00:12;;;;;;;3.92;1.75;;;21.60;96.00;;;;;;5021248;28;20529;-68
2022/06/18 00:02:39;;;;;;;6.72;1.67;;;21.60;96.10;;;;;;5021930;28;20493;-69
2022/06/18 00:05:06;;;;;;;6.75;1.70;;;21.50;96.20;;;;;;5040504;28;20034;-67
2022/06/18 00:07:35;;;;;;;4.40;1.35;;;21.50;96.30;;;;;;5038463;28;20045;-70
2022/06/18 00:10:03;;;;;;;5.25;1.98;;;21.50;96.30;;;;;;5039944;28;20029;-69
2022/06/18 00:15:22;;;;;;;3.70;1.40;;;21.50;96.70;;;;;;5033468;28;20083;-69
2022/06/18 00:17:49;;;;;;;2.55;1.15;;;21.50;96.50;;;;;;5034445;28;20525;-67
2022/06/18 00:20:15;;;;;;;3.22;1.80;;;21.40;96.50;;;;;;5022587;28;20617;-69
2022/06/18 00:22:44;;;;;;;5.13;1.52;;;21.40;97.10;;;;;;5032227;28;20036;-69
2022/06/18 00:25:25;;;;;;;2.83;1.50;;;21.40;96.80;;;;;;5041121;28;20043;-69
2022/06/18 00:27:50;;;;;;;5.75;1.60;;;21.30;96.80;;;;;;5035526;28;20053;-69
2022/06/18 00:30:19;;;;;;;3.60;1.67;;;21.30;96.70;;;;;;5039675;28;20040;-70
2022/06/18 00:32:45;;;;;;;2.10;1.42;;;21.30;96.80;;;;;;5019317;28;20404;-69
2022/06/18 00:35:12;;;;;;;8.05;1.90;;;21.30;97.30;;;;;;5040116;28;20032;-69
2022/06/18 00:37:39;;;;;;;4.95;1.50;;;21.30;97.20;;;;;;5019722;28;20036;-69
2022/06/18 00:40:24;;;;;;;3.20;1.35;;;21.20;97.30;;;;;;5022112;28;20083;-67
2022/06/18 00:42:50;;;;;;;6.70;1.52;;;21.20;97.70;;;;;;5034347;28;20099;-69
2022/06/18 00:45:22;;;;;;;6.82;1.42;;;21.10;97.90;;;;;;5021567;28;20195;-69
2022/06/18 00:48:02;;;;;;;5.90;2.05;;;21.00;98.00;;;;;;5019408;28;20033;-70
2022/06/18 00:50:35;;;;;;;5.35;1.58;;;21.00;98.20;;;;;;5019736;28;20061;-67
2022/06/18 00:53:23;;;;;;;2.92;1.48;;;21.00;98.60;;;;;;5038967;28;20427;-68
2022/06/18 00:56:19;;;;;;;5.35;1.73;;;21.00;98.70;;;;;;5034420;28;20033;-71
2022/06/18 00:59:01;;;;;;;5.35;1.85;;;20.90;98.80;;;;;;4998494;28;20025;-71
2022/06/18 01:01:34;;;;;;;6.10;1.42;;;20.90;99.10;;;;;;5037551;28;22165;-69
2022/06/18 01:04:00;;;;;;;3.72;1.35;;;20.80;99.60;;;;;;5036201;28;20120;-71
2022/06/18 01:06:29;;;;;;;10.18;1.65;;;20.80;99.50;;;;;;5019589;28;20040;-70
2022/06/18 01:09:03;;;;;;;2.75;1.27;;;20.80;99.90;;;;;;5037103;28;20124;-68
2022/06/18 01:11:32;;;;;;;9.18;1.67;;;20.80;99.80;;;;;;5037050;28;20033;-69
2022/06/18 01:14:00;;;;;;;5.28;2.35;;;20.80;99.80;;;;;;5037417;28;20052;-70
2022/06/18 01:16:26;;;;;;;7.22;2.42;;;20.70;99.80;;;;;;5037279;28;20042;-69
2022/06/18 01:18:52;;;;;;;4.30;1.60;;;20.70;99.90;;;;;;5038662;28;20126;-70
2022/06/18 01:21:44;;;;;;;5.28;1.85;;;20.70;99.90;;;;;;5017841;28;20450;-69
2022/06/18 01:24:17;;;;;;;3.83;1.70;;;20.70;99.90;;;;;;5031797;28;20038;-67
2022/06/18 01:26:45;;;;;;;5.30;1.83;;;20.60;99.90;;;;;;5035444;28;20060;-72
2022/06/18 01:29:11;;;;;;;6.60;2.45;;;20.60;99.90;;;;;;5038962;28;20037;-69
2022/06/18 01:31:37;;;;;;;7.13;1.73;;;20.60;99.90;;;;;;5036204;28;20500;-69
2022/06/18 01:34:04;;;;;;;6.20;1.80;;;20.60;99.90;;;;;;5038614;28;20036;-69
2022/06/18 01:36:33;;;;;;;4.20;1.85;;;20.50;99.90;;;;;;5036254;28;20033;-69
2022/06/18 01:39:01;;;;;;;5.25;1.73;;;20.50;99.90;;;;;;5038470;28;20022;-68
2022/06/18 01:44:39;;;;;;;4.30;1.90;;;20.40;99.90;;;;;;5031736;28;20029;-70
2022/06/18 01:47:22;;;;;;;9.82;2.00;;;20.30;99.90;;;;;;5036526;28;20489;-68
2022/06/18 01:50:07;;;;;;;5.60;2.45;;;20.30;99.90;;;;;;5032862;28;20095;-69
2022/06/18 01:52:50;;;;;;;7.22;2.03;;;20.30;99.90;;;;;;5035332;28;20087;-70
2022/06/18 01:55:22;;;;;;;4.78;2.03;;;20.20;99.90;;;;;;5032827;28;20041;-70
2022/06/18 01:57:53;;;;;;;4.63;2.15;;;20.20;99.90;;;;;;5038741;28;20056;-70
2022/06/18 02:00:22;;;;;;;7.35;2.55;;;20.10;99.90;;;;;;5036243;28;20048;-68
2022/06/18 02:02:48;;;;;;;4.97;2.10;;;20.00;99.90;;;;;;5039205;28;20034;-70
2022/06/18 02:05:16;;;;;;;9.45;2.25;;;20.00;99.90;;;;;;5037645;28;20110;-70
2022/06/18 02:07:44;;;;;;;2.55;1.73;;;19.90;99.90;;;;;;5036263;28;20029;-69
2022/06/18 02:10:18;;;;;;;3.47;2.03;;;19.90;99.90;;;;;;5020470;28;20029;-68
2022/06/18 02:12:44;;;;;;;9.20;1.85;;;19.80;99.90;;;;;;5018281;28;20026;-70
2022/06/18 02:15:21;;;;;;;6.85;2.55;;;19.80;99.90;;;;;;5038390;28;20043;-67
2022/06/18 02:17:46;;;;;;;5.70;2.35;;;19.80;99.90;;;;;;5036842;28;20120;-71
2022/06/18 02:20:20;;;;;;;6.93;2.30;;;19.80;99.90;;;;;;5037083;28;20105;-70
2022/06/18 02:22:50;;;;;;;7.53;2.20;;;19.70;99.90;;;;;;5022009;28;20461;-70
2022/06/18 02:25:19;;;;;;;10.32;2.92;;;19.70;99.90;;;;;;5024187;28;20057;-70
2022/06/18 02:27:45;;;;;;;8.13;2.60;;;19.60;99.90;;;;;;5040884;28;20116;-71
2022/06/18 02:30:18;;;;;;;8.10;2.60;;;19.60;99.90;;;;;;5023437;28;20083;-70
2022/06/18 02:32:56;;;;;;;5.88;2.00;;;19.60;99.90;;;;;;5040336;28;20060;-70
2022/06/18 02:35:22;;;;;;;12.27;2.40;;;19.60;99.90;;;;;;5040183;28;20037;-68
2022/06/18 02:37:47;;;;;;;12.05;3.05;;;19.50;99.90;;;;;;5023009;28;20037;-71
2022/06/18 02:40:19;;;;;;;6.07;2.40;;;19.50;99.90;;;;;;5041342;28;20035;-69
2022/06/18 02:42:45;;;;;;;12.05;3.40;;;19.50;99.90;;;;;;5022394;28;20152;-70
2022/06/18 02:45:11;;;;;;;6.70;2.92;;;19.50;99.90;;;;;;5040573;28;20041;-70
2022/06/18 02:47:37;;;;;;;7.10;2.58;;;19.40;99.90;;;;;;5039423;28;20083;-68
2022/06/18 02:50:14;;;;;;;10.18;2.95;;;19.40;99.90;;;;;;5035651;28;20037;-69
2022/06/18 02:52:46;;;;;;;8.35;2.85;;;19.40;99.90;;;;;;5018282;28;20033;-70
2022/06/18 02:55:29;;;;;;;11.00;3.33;;;19.30;99.90;;;;;;5041139;28;20033;-69
2022/06/18 02:58:00;;;;;;;6.60;2.95;;;19.30;99.90;;;;;;5023878;28;20029;-71
2022/06/18 03:00:26;;;;;;;11.02;2.97;;;19.30;99.90;;;;;;5041936;28;20041;-68
2022/06/18 03:02:52;;;;;;;6.07;3.05;;;19.30;99.90;;;;;;5024462;28;20124;-68
2022/06/18 03:05:27;;;;;;;6.65;3.10;;;19.30;99.90;;;;;;5039898;28;20116;-71
2022/06/18 03:07:53;;;;;;;8.10;2.72;;;19.30;99.90;;;;;;5023935;28;20425;-69
2022/06/18 03:13:03;;;;;;;4.13;2.53;;;19.20;99.90;;;;;;5035038;28;20037;-70
2022/06/18 03:15:32;;;;;;;10.32;3.33;;;19.20;99.90;;;;;;5041142;28;20393;-69
2022/06/18 03:17:58;;;;;;;6.80;3.00;;;19.20;99.90;;;;;;5021093;28;20033;-70
2022/06/18 03:20:34;;;;;;;9.07;3.85;;;19.20;99.90;;;;;;5022023;28;20033;-70
2022/06/18 03:23:01;;;;;;;9.55;3.65;;;19.20;99.90;;;;;;5038648;28;20029;-70
2022/06/18 03:25:26;;;;;;;8.15;3.78;;;19.20;99.90;;;;;;5041663;28;20034;-70
2022/06/18 03:27:52;;;;;;;10.00;3.83;;;19.20;99.90;;;;;;5040755;28;20450;-70
2022/06/18 03:30:18;;;;;;;6.57;3.03;;;19.20;99.90;;;;;;5039232;28;20053;-69
2022/06/18 03:32:43;;;;;;;7.82;3.35;;;19.20;99.90;;;;;;5038351;28;20025;-70
2022/06/18 03:35:09;;;;;;;6.03;2.70;;;19.20;99.90;;;;;;5040343;28;20017;-70
2022/06/18 03:37:34;;;;;;;12.88;3.08;;;19.20;99.90;;;;;;5038378;28;20025;-70
2022/06/18 03:40:00;;;;;;;10.95;2.47;;;19.20;99.90;;;;;;5023982;28;20048;-70
2022/06/18 03:42:26;;;;;;;12.35;3.38;;;19.20;99.90;;;;;;5019584;28;20409;-71
2022/06/18 03:44:51;;;;;;;7.15;2.65;;;19.30;99.90;;;;;;5040867;28;20033;-71
2022/06/18 03:47:17;;;;;;;11.45;2.35;;;19.30;99.90;;;;;;5038585;28;20040;-69
2022/06/18 03:49:42;;;;;;;14.55;2.75;;;19.40;99.90;;;;;;5021358;28;20032;-70
2022/06/18 03:52:10;;;;;;;10.25;2.90;;;19.40;99.90;;;;;;5022955;28;20047;-68
2022/06/18 03:54:36;;;;;;;7.85;2.83;;;19.40;99.90;;;;;;5038075;28;20033;-70
2022/06/18 03:57:02;;;;;;;8.25;2.42;;;19.40;99.90;;;;;;5023575;28;20049;-69
2022/06/18 03:59:27;;;;;;;7.88;2.63;;;19.40;99.90;;;;;;5037137;28;20041;-71
2022/06/18 04:01:53;;;;;;;9.80;2.60;;;19.40;99.90;;;;;;5022277;28;20041;-69
2022/06/18 04:04:18;;;;;;;11.25;2.47;;;19.50;99.90;;;;;;5020276;28;20041;-70
2022/06/18 04:06:44;;;;;;;9.52;2.60;;;19.40;99.90;;;;;;5021281;28;20034;-70
2022/06/18 04:09:10;;;;;;;13.52;2.40;;;19.40;99.90;;;;;;5039643;28;20064;-68
2022/06/18 04:11:36;;;;;;;8.77;2.47;;;19.40;99.90;;;;;;5038096;28;20099;-70
2022/06/18 04:14:03;;;;;;;7.82;3.20;;;19.50;99.90;;;;;;5041207;28;20501;-69
2022/06/18 04:16:29;;;;;;;12.40;2.50;;;19.40;99.90;;;;;;5032768;28;20037;-71
2022/06/18 04:18:54;;;;;;;10.82;2.63;;;19.40;99.90;;;;;;5040600;28;20036;-68
2022/06/18 04:21:20;;;;;;;13.10;3.63;;;19.50;99.90;;;;;;5019438;28;20032;-71
2022/06/18 04:23:45;;;;;;;9.13;3.10;;;19.50;99.90;;;;;;5038910;28;20029;-70
2022/06/18 04:26:12;;;;;;;11.18;3.50;;;19.40;99.90;;;;;;5039728;28;20645;-68
2022/06/18 04:28:38;;;;;;;16.63;3.47;;;19.40;99.90;;;;;;5022143;28;20033;-70
2022/06/18 04:31:04;;;;;;;10.32;2.80;;;19.40;99.90;;;;;;5019760;28;20064;-67
2022/06/18 04:33:30;;;;;;;9.68;3.47;;;19.50;99.90;;;;;;5039846;28;20516;-70
2022/06/18 04:35:57;;;;;;;8.85;2.90;;;19.40;99.90;;;;;;5018786;28;20112;-69
2022/06/18 04:38:24;;;;;;;7.80;2.97;;;19.50;99.90;;;;;;5038263;28;20052;-70
2022/06/18 04:40:50;;;;;;;7.18;3.13;;;19.50;99.90;;;;;;5020933;28;20417;-68
2022/06/18 04:43:16;;;;;;;12.20;2.85;;;19.50;99.90;;;;;;5019387;28;20405;-69
2022/06/18 04:45:42;;;;;;;8.90;2.97;;;19.50;99.90;;;;;;5020261;28;20046;-71
2022/06/18 04:48:08;;;;;;;9.00;3.08;;;19.50;99.90;;;;;;5039650;28;20440;-70
2022/06/18 04:50:37;;;;;;;11.52;3.05;;;19.60;99.90;;;;;;5036967;28;20112;-69
2022/06/18 04:53:04;;;;;;;8.70;3.30;;;19.60;99.90;;;;;;5022191;28;20032;-70
2022/06/18 04:55:30;;;;;;;9.05;3.80;;;19.60;99.90;;;;;;5035732;28;20036;-71
2022/06/18 04:57:55;;;;;;;11.43;3.25;;;19.60;99.90;;;;;;5040024;28;20409;-68
2022/06/18 05:00:21;;;;;;;10.88;3.55;;;19.70;99.90;;;;;;5018830;28;20036;-70
2022/06/18 05:02:47;;;;;;;14.57;4.75;;;19.70;99.90;;;;;;5040121;28;20056;-71
2022/06/18 05:05:21;;;;;;;8.50;2.90;;;19.80;99.90;;;;;;5037527;28;20040;-71
2022/06/18 05:07:47;;;;;;;15.07;2.78;;;19.80;99.90;;;;;;5037786;28;20032;-70
2022/06/18 05:10:13;;;;;;;12.23;3.00;;;19.80;99.90;;;;;;5035345;28;20413;-69
2022/06/18 05:12:39;;;;;;;10.45;3.50;;;19.90;99.90;;;;;;5038357;28;20033;-71
2022/06/18 05:15:07;;;;;;;9.90;3.15;;;19.90;99.90;;;;;;5022481;28;20028;-69
2022/06/18 05:17:34;;;;;;;12.82;4.00;;;20.00;99.90;;;;;;5036270;28;20402;-70
2022/06/18 05:20:00;;;;;;;10.05;3.45;;;20.00;99.90;;;;;;5023163;28;20029;-70
2022/06/18 05:22:27;;;;;;;13.80;4.07;;;20.00;99.90;;;;;;5016941;28;20040;-70
2022/06/18 05:24:53;;;;;;;17.88;3.90;;;20.10;99.90;;;;;;5040047;28;20124;-70
2022/06/18 05:27:25;;;;;;;11.32;3.53;;;20.10;99.90;;;;;;5039558;28;20484;-71
2022/06/18 05:29:50;;;;;;;11.05;3.20;;;20.20;99.90;;;;;;5018760;28;20033;-69
2022/06/18 05:32:16;;;;;;;13.63;3.00;;;20.20;99.90;;;;;;5037638;28;20120;-71
2022/06/18 05:34:42;;;;;;;11.48;3.03;;;20.30;99.90;;;;;;5037719;28;20032;-67
2022/06/18 05:37:15;;;;;;;11.02;3.40;;;20.40;99.90;;;;;;5037522;28;20561;-70
2022/06/18 05:39:41;;;;;;;12.70;3.30;;;20.50;99.90;;;;;;5036135;28;20079;-69
2022/06/18 05:42:06;;;;;;;8.63;2.92;;;20.60;99.90;;;;;;5037527;28;20049;-70
2022/06/18 05:44:32;;;;;;;11.32;2.58;;;20.70;99.90;;;;;;5037775;28;20033;-71
2022/06/18 05:46:58;;;;;;;9.77;3.22;;;20.80;99.90;;;;;;5036205;28;20080;-71
2022/06/18 05:49:23;;;;;;;12.07;3.60;;;20.90;99.90;;;;;;5020322;28;20041;-70
2022/06/18 05:51:49;;;;;;;8.90;3.22;;;21.10;99.90;;;;;;5036641;28;20040;-71
2022/06/18 05:54:14;;;;;;;12.80;4.07;;;21.30;99.90;;;;;;5037554;28;20029;-70
2022/06/18 05:56:40;;;;;;;15.93;3.70;;;21.60;99.90;;;;;;5037492;28;20458;-70
2022/06/18 05:59:07;;;;;;;10.88;3.50;;;21.70;99.90;;;;;;5038052;28;20574;-71
2022/06/18 06:01:33;;;;;;;9.07;3.38;;;22.00;99.90;;;;;;5018297;28;20132;-71
2022/06/18 06:03:58;;;;;;;13.75;4.00;;;22.10;99.90;;;;;;5020609;28;20115;-70
2022/06/18 06:06:24;;;;;;;18.33;4.20;;;22.30;99.90;;;;;;5035096;28;20037;-70
2022/06/18 06:08:49;;;;;;;17.27;3.97;;;22.40;99.90;;;;;;5039245;28;20036;-70
2022/06/18 06:11:30;;;;;;;9.45;3.20;;;22.40;99.90;;;;;;5035312;28;20029;-70
2022/06/18 06:13:57;;;;;;;16.00;4.32;;;22.30;99.90;;;;;;5032480;28;20030;-70
2022/06/18 06:16:24;;;;;;;7.20;3.03;;;22.40;99.90;;;;;;5038096;28;20033;-69
2022/06/18 06:18:50;;;;;;;13.40;4.28;;;22.60;99.90;;;;;;5020585;28;20833;-70
2022/06/18 06:21:16;;;;;;;13.90;3.60;;;22.70;99.90;;;;;;5016737;28;20038;-70
2022/06/18 06:23:41;;;;;;;12.57;3.70;;;22.80;99.90;;;;;;5026972;28;20030;-69
2022/06/18 06:26:20;;;;;;;10.38;4.28;;;22.90;99.90;;;;;;5033228;28;20087;-71
2022/06/18 06:28:46;;;;;;;14.35;4.03;;;23.00;99.90;;;;;;5029809;28;20041;-69
2022/06/18 06:31:12;;;;;;;9.63;3.28;;;23.10;99.90;;;;;;5031633;28;20470;-69
2022/06/18 06:33:38;;;;;;;11.50;3.47;;;23.20;99.90;;;;;;5013840;28;20088;-71
2022/06/18 06:36:05;;;;;;;8.35;3.53;;;23.20;99.90;;;;;;5038164;28;20029;-70
2022/06/18 06:38:32;;;;;;;14.25;3.58;;;23.40;99.90;;;;;;5035687;28;20088;-70
2022/06/18 06:40:58;;;;;;;11.20;3.60;;;23.60;99.90;;;;;;5038945;28;20382;-68
2022/06/18 06:43:24;;;;;;;14.32;4.38;;;23.90;99.90;;;;;;5028857;28;20777;-70
2022/06/18 06:45:49;;;;;;;13.32;4.47;;;24.20;99.90;;;;;;5012562;28;20104;-69
2022/06/18 06:48:15;;;;;;;16.00;4.10;;;24.40;99.90;;;;;;5027941;28;20028;-70
2022/06/18 06:50:41;;;;;;;18.95;4.70;;;24.60;99.90;;;;;;5013122;28;20056;-71
2022/06/18 06:53:07;;;;;;;9.90;4.13;;;24.60;99.90;;;;;;5012156;28;20401;-71
2022/06/18 06:58:20;;;;;;;21.95;3.90;;;24.80;99.90;;;;;;5029846;28;20160;-71
2022/06/18 07:00:52;;;;;;;8.20;2.65;;;25.10;99.90;;;;;;5035545;28;20116;-67
2022/06/18 07:03:24;;;;;;;16.05;4.28;;;25.10;99.90;;;;;;5030101;28;20145;-70
2022/06/18 07:05:49;;;;;;;11.80;3.92;;;25.30;99.90;;;;;;5031522;28;20033;-71
2022/06/18 07:08:15;;;;;;;10.30;3.55;;;25.50;99.90;;;;;;5038259;28;20397;-70
2022/06/18 07:10:41;;;;;;;19.13;4.60;;;25.90;99.90;;;;;;5039593;28;20026;-70
2022/06/18 07:13:06;;;;;;;12.13;4.05;;;26.30;99.90;;;;;;5022476;28;20033;-72
2022/06/18 07:15:33;;;;;;;14.27;3.67;;;26.80;99.90;;;;;;5021548;28;20025;-71
2022/06/18 07:17:59;;;;;;;11.82;4.07;;;27.20;99.90;;;;;;5041295;28;20033;-69
2022/06/18 07:20:26;;;;;;;11.93;3.40;;;27.50;99.30;;;;;;5039857;28;20034;-70
2022/06/18 07:22:54;;;;;;;11.23;3.53;;;27.90;98.60;;;;;;5041788;28;20134;-71
2022/06/18 07:25:20;;;;;;;16.15;4.25;;;28.30;97.60;;;;;;5035449;28;20037;-71
2022/06/18 07:27:45;;;;;;;11.32;4.18;;;28.70;97.30;;;;;;5039289;28;20099;-70
2022/06/18 07:30:11;;;;;;;10.65;4.10;;;29.30;96.90;;;;;;5035554;28;20048;-71
2022/06/18 07:32:44;;;;;;;13.15;3.83;;;29.70;95.70;;;;;;5019625;28;20037;-71
2022/06/18 07:35:17;;;;;;;14.35;4.07;;;30.30;93.30;;;;;;5015324;28;20404;-71
2022/06/18 07:37:42;;;;;;;12.38;4.35;;;30.60;92.80;;;;;;5018495;28;20033;-70
2022/06/18 07:40:08;;;;;;;14.30;4.97;;;30.90;92.20;;;;;;5014967;28;20113;-71
2022/06/18 07:42:35;;;;;;;16.08;4.72;;;31.10;91.70;;;;;;5034723;28;20056;-72
2022/06/18 07:45:01;;;;;;;11.85;4.60;;;31.40;91.60;;;;;;5034652;28;20033;-70
2022/06/18 07:47:26;;;;;;;15.23;4.70;;;31.80;90.60;;;;;;5036490;28;20397;-72
2022/06/18 07:49:52;;;;;;;11.63;4.82;;;31.80;90.10;;;;;;5023647;28;20076;-71
2022/06/18 07:52:17;;;;;;;13.20;4.63;;;32.00;89.80;;;;;;5034583;28;20033;-71
2022/06/18 07:54:43;;;;;;;11.98;4.60;;;32.30;89.90;;;;;;5038162;28;20586;-71
2022/06/18 07:57:09;;;;;;;16.92;5.80;;;32.50;88.50;;;;;;5021570;28;20457;-72
2022/06/18 07:59:35;;;;;;;16.92;5.53;;;32.40;86.90;;;;;;5034482;28;20029;-73
2022/06/18 08:02:01;;;;;;;12.85;5.43;;;32.40;86.90;;;;;;5032054;28;20056;-70
2022/06/18 08:04:29;;;;;;;16.90;5.65;;;32.40;86.50;;;;;;5017240;28;20045;-72
2022/06/18 08:06:54;;;;;;;16.23;4.50;;;32.10;86.40;;;;;;5017030;28;20041;-70
2022/06/18 08:09:20;;;;;;;12.00;4.47;;;32.10;85.30;;;;;;5037006;28;20039;-71
2022/06/18 08:11:46;;;;;;;16.73;4.68;;;31.90;85.80;;;;;;5041126;28;20086;-68
2022/06/18 08:14:12;;;;;;;17.38;5.07;;;31.50;84.50;;;;;;5037570;28;20048;-70
2022/06/18 08:16:38;;;;;;;15.82;5.18;;;31.40;85.20;;;;;;5040264;28;20033;-71
2022/06/18 08:19:04;;;;;;;11.57;4.75;;;31.40;84.90;;;;;;5040379;28;20087;-71
2022/06/18 08:21:33;;;;;;;15.60;4.60;;;30.80;84.30;;;;;;5019386;28;20045;-68
2022/06/18 08:24:08;;;;;;;13.65;3.83;;;30.60;85.90;;;;;;5020290;28;20382;-70
2022/06/18 08:26:34;;;;;;;17.33;4.43;;;30.60;86.60;;;;;;5040792;28;20079;-71
2022/06/18 08:29:01;;;;;;;10.00;3.28;;;30.10;87.50;;;;;;5039394;28;20053;-68
2022/06/18 08:31:28;;;;;;;15.95;3.65;;;29.80;88.30;;;;;;5038598;28;20132;-70
2022/06/18 08:33:54;;;;;;;14.00;3.75;;;29.70;89.10;;;;;;5038781;28;20387;-70
2022/06/18 08:36:19;;;;;;;15.35;3.60;;;29.40;89.80;;;;;;5012598;28;20025;-70
2022/06/18 08:38:48;;;;;;;7.93;2.45;;;29.20;88.80;;;;;;5034471;28;20089;-69
2022/06/18 08:41:49;;;;;;;12.73;2.60;;;29.00;90.00;;;;;;5016702;28;20078;-70
2022/06/18 08:44:25;;;;;;;8.02;1.85;;;28.80;90.50;;;;;;5014831;28;20029;-69
2022/06/18 08:47:10;;;;;;;8.50;2.38;;;28.60;90.70;;;;;;5033186;28;20112;-70
2022/06/18 08:50:01;;;;;;;12.30;2.50;;;28.40;90.50;;;;;;5044530;28;20025;-70
2022/06/18 08:53:18;;;;;;;11.65;2.15;;;28.20;91.20;;;;;;5033621;28;20517;-71
2022/06/18 08:56:08;;;;;;;8.52;2.28;;;28.00;91.00;;;;;;4997697;28;20030;-70
2022/06/18 08:58:33;;;;;;;;;;;28.20;91.30;;;;;;5035183;28;20586;-70
2022/06/18 09:01:17;;;;;;;9.32;2.25;;;28.10;90.70;;;;;;5019260;28;19917;-69
2022/06/18 09:04:07;;;;;;;8.60;2.17;;;28.10;90.50;;;;;;5037835;28;20029;-71
2022/06/18 09:06:51;;;;;;;6.50;2.45;;;28.00;90.10;;;;;;5036329;28;20053;-70
2022/06/18 09:09:25;;;;;;;6.97;1.85;;;27.80;90.20;;;;;;5033150;28;20037;-67
2022/06/18 09:11:56;;;;;;;9.93;2.20;;;27.70;90.60;;;;;;5039562;28;20029;-70
2022/06/18 09:14:45;;;;;;;12.20;2.70;;;27.70;90.80;;;;;;5018686;28;20071;-70
2022/06/18 09:17:28;;;;;;;7.15;1.73;;;27.70;91.00;;;;;;5032370;28;20060;-71
2022/06/18 09:20:09;;;;;;;5.07;1.85;;;27.60;90.80;;;;;;5020930;28;20142;-70
2022/06/18 09:22:42;;;;;;;6.57;1.90;;;27.60;90.70;;;;;;5038232;28;20076;-70
2022/06/18 09:25:13;;;;;;;9.02;1.67;;;27.70;91.10;;;;;;5022303;28;20098;-69
2022/06/18 09:27:58;;;;;;;6.68;1.60;;;27.60;90.40;;;;;;5036195;28;20048;-71
2022/06/18 09:30:39;;;;;;;5.05;1.60;;;27.70;90.40;;;;;;5034663;28;20064;-69
2022/06/18 09:33:14;;;;;;;5.07;1.90;;;27.70;90.40;;;;;;5018477;28;20087;-70
2022/06/18 09:35:56;;;;;;;12.25;1.90;;;27.70;90.80;;;;;;5032316;28;20033;-70
2022/06/18 09:38:27;;;;;;;4.47;1.35;;;27.70;90.80;;;;;;5016506;28;20039;-69
2022/06/18 09:40:58;;;;;;;8.85;1.45;;;27.90;91.00;;;;;;5020698;28;20489;-70
2022/06/18 09:44:22;;;;;;;4.20;1.77;;;28.00;90.90;;;;;;5036648;28;20379;-71
2022/06/18 09:46:53;;;;;;;5.32;1.52;;;28.20;90.70;;;;;;4997651;28;20038;-68
2022/06/18 09:49:18;;;;;;;6.53;2.00;;;28.10;91.00;;;;;;5034558;28;20368;-69
2022/06/18 09:52:04;;;;;;;11.45;1.70;;;28.10;91.60;;;;;;5036309;28;20470;-70
2022/06/18 09:54:38;;;;;;;7.05;1.52;;;28.00;91.50;;;;;;5036463;28;20029;-70
2022/06/18 09:57:04;;;;;;;5.68;1.95;;;28.10;92.50;;;;;;5039312;28;20079;-68
2022/06/18 09:59:37;;;;;;;6.50;1.33;;;28.20;92.70;;;;;;5036347;28;20057;-69
2022/06/18 10:02:18;;;;;;;8.90;1.88;;;28.20;91.90;;;;;;5038691;28;20421;-68
2022/06/18 10:07:32;;;;;;;5.38;1.25;;;28.10;92.40;;;;;;5036520;28;20044;-70
2022/06/18 10:10:05;;;;;;;4.10;1.73;;;28.10;92.70;;;;;;5020566;28;20087;-71
2022/06/18 10:12:35;;;;;;;4.10;1.60;;;28.20;92.60;;;;;;5017522;28;20370;-70
2022/06/18 10:15:12;;;;;;;9.05;1.95;;;28.20;92.40;;;;;;5021041;28;20040;-70
2022/06/18 10:17:59;;;;;;;7.00;1.73;;;28.10;92.10;;;;;;5013689;28;20087;-70
2022/06/18 10:20:43;;;;;;;3.35;1.27;;;28.10;92.80;;;;;;5036237;28;20128;-68
2022/06/18 10:23:29;;;;;;;7.38;2.05;;;28.00;92.00;;;;;;5013948;28;20129;-70
2022/06/18 10:26:09;;;;;;;10.07;2.35;;;27.90;92.70;;;;;;5037584;28;20044;-70
2022/06/18 10:28:56;;;;;;;7.47;1.92;;;27.90;93.40;;;;;;5035429;28;20042;-70
2022/06/18 10:31:29;;;;;;;11.23;1.75;;;28.00;93.60;;;;;;5033351;28;20120;-68
2022/06/18 10:34:34;;;;;;;7.90;2.05;;;28.20;93.40;;;;;;5037523;28;20512;-70
2022/06/18 10:37:36;;;;;;;1.92;1.00;;;28.30;92.80;;;;;;5037040;28;20028;-70
2022/06/18 10:40:20;;;;;;;5.63;1.40;;;28.30;93.10;;;;;;5041480;28;20370;-70
2022/06/18 10:43:12;;;;;;;5.72;1.15;;;28.40;93.10;;;;;;5016755;28;20041;-70
2022/06/18 10:46:02;;;;;;;6.95;1.45;;;28.30;93.40;;;;;;5026152;28;20033;-70
2022/06/18 10:48:31;;;;;;;6.30;1.55;;;28.30;93.70;;;;;;5040265;28;20033;-70
2022/06/18 10:50:58;;;;;;;3.33;1.48;;;28.30;93.90;;;;;;5022798;28;20821;-68
2022/06/18 10:53:27;;;;;;;5.10;1.33;;;28.30;93.70;;;;;;5040287;28;20107;-70
2022/06/18 10:56:05;;;;;;;5.40;1.23;;;28.20;93.70;;;;;;5041041;28;20033;-68
2022/06/18 10:58:31;;;;;;;4.55;1.15;;;28.30;93.50;;;;;;5041340;28;20408;-69
2022/06/18 11:01:03;;;;;;;9.18;1.52;;;28.30;93.50;;;;;;5022279;28;20501;-70
2022/06/18 11:03:33;;;;;;;4.93;1.65;;;28.30;93.80;;;;;;5023122;28;20029;-70
2022/06/18 11:06:04;;;;;;;2.92;1.05;;;28.50;93.30;;;;;;5022070;28;20040;-69
2022/06/18 11:08:33;;;;;;;10.32;1.60;;;28.60;93.60;;;;;;5041194;28;20033;-70
2022/06/18 11:11:04;;;;;;;7.90;1.25;;;28.60;93.30;;;;;;5021603;28;21683;-69
2022/06/18 11:13:33;;;;;;;3.90;1.20;;;28.70;92.40;;;;;;5022989;28;20057;-70
2022/06/18 11:16:10;;;;;;;6.38;1.05;;;28.70;93.00;;;;;;5040096;28;20444;-70
2022/06/18 11:18:50;;;;;;;5.88;1.48;;;28.80;93.10;;;;;;5038160;28;20166;-69
2022/06/18 11:21:19;;;;;;;3.15;0.85;;;28.90;93.10;;;;;;5034589;28;20501;-70
2022/06/18 11:23:51;;;;;;;5.07;1.55;;;29.00;93.30;;;;;;5022786;28;20041;-69
2022/06/18 11:26:22;;;;;;;7.35;1.52;;;29.00;93.10;;;;;;5022997;28;20021;-71
2022/06/18 11:28:51;;;;;;;8.45;1.35;;;29.00;92.40;;;;;;5039175;28;20033;-70
2022/06/18 11:31:41;;;;;;;4.72;1.40;;;29.00;92.00;;;;;;5021825;28;20353;-70
2022/06/18 11:34:20;;;;;;;4.63;1.77;;;29.10;92.30;;;;;;5030560;28;20459;-70
2022/06/18 11:36:50;;;;;;;3.38;1.50;;;29.40;91.60;;;;;;5019766;28;20613;-69
2022/06/18 11:39:37;;;;;;;7.57;1.98;;;29.50;90.90;;;;;;5039941;28;20033;-68
2022/06/18 11:42:10;;;;;;;4.68;1.30;;;29.50;91.50;;;;;;5029195;28;20098;-70
2022/06/18 11:44:51;;;;;;;4.32;1.38;;;29.50;91.60;;;;;;5034621;28;20505;-68
2022/06/18 11:47:25;;;;;;;9.80;1.23;;;29.40;91.90;;;;;;5036883;28;20569;-68
2022/06/18 11:50:19;;;;;;;7.82;1.20;;;29.30;91.90;;;;;;5035489;28;20098;-68
2022/06/18 11:53:08;;;;;;;4.13;1.13;;;29.30;91.50;;;;;;5017732;28;20045;-69
2022/06/18 11:55:37;;;;;;;5.32;1.48;;;29.30;91.70;;;;;;5014173;28;20754;-70
2022/06/18 11:58:38;;;;;;;4.63;1.05;;;29.30;92.10;;;;;;5015671;28;20103;-70
2022/06/18 12:01:29;;;;;;;8.85;1.42;;;29.30;91.80;;;;;;5015246;28;20037;-70
2022/06/18 12:04:27;;;;;;;7.45;1.13;;;29.10;91.40;;;;;;5037768;28;20029;-69
2022/06/18 12:07:16;;;;;;;3.50;0.90;;;29.00;91.60;;;;;;5037278;28;20040;-70
2022/06/18 12:09:42;;;;;;;4.85;0.77;;;28.90;92.10;;;;;;5034031;28;20033;-67
2022/06/18 12:12:22;;;;;;;5.88;1.10;;;28.80;92.50;;;;;;5037126;28;20029;-69
2022/06/18 12:14:55;;;;;;;1.80;0.70;;;28.90;92.50;;;;;;5020343;28;20440;-70
2022/06/18 12:17:44;;;;;;;2.92;1.00;;;28.80;92.40;;;;;;5019653;28;20104;-69
2022/06/18 12:20:31;;;;;;;3.55;1.35;;;28.80;92.10;;;;;;5022784;28;20030;-68
2022/06/18 12:23:21;;;;;;;4.70;0.80;;;28.80;91.60;;;;;;5024595;28;20041;-68
2022/06/18 12:26:21;;;;;;;3.72;0.98;;;28.90;91.80;;;;;;5030140;28;20043;-70
2022/06/18 12:29:21;;;;;;;1.33;0.60;;;28.70;91.60;;;;;;5033826;28;20098;-69
2022/06/18 12:32:05;;;;;;;3.65;0.38;;;28.50;92.00;;;;;;5016852;28;20033;-70
2022/06/18 12:34:41;;;;;;;2.17;0.73;;;28.50;91.20;;;;;;5030485;28;20444;-70
2022/06/18 12:37:26;;;;;;;5.68;1.08;;;28.30;91.60;;;;;;5033001;28;20087;-68
2022/06/18 12:39:56;;;;;;;6.38;1.25;;;28.20;91.90;;;;;;5019209;28;20035;-68
2022/06/18 12:42:35;;;;;;;7.90;0.90;;;28.10;91.70;;;;;;5019134;28;20034;-70
2022/06/18 12:45:16;;;;;;;3.17;0.63;;;28.00;92.10;;;;;;5039488;28;20052;-70
2022/06/18 12:48:19;;;;;;;3.00;1.10;;;28.00;92.00;;;;;;5033213;28;20063;-70
2022/06/18 12:51:03;;;;;;;4.38;0.95;;;28.00;92.60;;;;;;5034946;28;20033;-68
2022/06/18 12:53:52;;;;;;;5.65;0.80;;;28.10;91.80;;;;;;5012685;28;20049;-69
2022/06/18 12:56:41;;;;;;;2.00;0.50;;;28.20;92.60;;;;;;5018569;28;20039;-70
2022/06/18 12:59:18;;;;;;;6.82;0.90;;;28.10;92.30;;;;;;5033695;28;20030;-68
2022/06/18 13:01:57;;;;;;;7.70;1.00;;;28.00;92.70;;;;;;5037360;28;20102;-69
2022/06/18 13:04:39;;;;;;;2.38;0.40;;;28.00;92.50;;;;;;5036926;28;20037;-69
2022/06/18 13:07:10;;;;;;;5.55;0.95;;;27.90;92.80;;;;;;5032775;28;20439;-69
2022/06/18 13:10:03;;;;;;;2.13;0.47;;;27.80;93.10;;;;;;5017436;28;20037;-70
2022/06/18 13:12:48;;;;;;;3.10;0.40;;;27.80;92.90;;;;;;5030179;28;20112;-69
2022/06/18 13:15:40;;;;;;;2.35;0.55;;;27.80;93.50;;;;;;5021709;28;20040;-69
2022/06/18 13:18:34;;;;;;;1.60;0.75;;;27.90;93.60;;;;;;5032155;28;20045;-70
2022/06/18 13:21:01;;;;;;;5.07;0.32;;;27.80;93.40;;;;;;5012457;28;20029;-69
2022/06/18 13:29:08;;;;;;;1.80;0.50;;;27.60;93.10;;;;;;5031563;28;20086;-68